sensor_id;sensor_type;location;lat;lon;timestamp;P1;durP1;ratioP1;P2;durP2;ratioP2
21170;SDS011;10743;52.160;20.910;2023-03-30T00:00:56;188.83;;;70.67;;
21170;SDS011;10743;52.160;20.910;2023-03-30T00:03:23;185.43;;;59.33;;
21170;SDS011;10743;52.160;20.910;2023-03-30T00:05:53;184.90;;;59.10;;
21170;SDS011;10743;52.160;20.910;2023-03-30T00:08:22;187.07;;;59.53;;
21170;SDS011;10743;52.160;20.910;2023-03-30T00:13:29;181.47;;;59.03;;
21170;SDS011;10743;52.160;20.910;2023-03-30T00:15:57;182.90;;;57.80;;
21170;SDS011;10743;52.160;20.910;2023-03-30T00:18:25;180.40;;;59.63;;
21170;SDS011;10743;52.160;20.910;2023-03-30T00:20:52;177.73;;;57.37;;
21170;SDS011;10743;52.160;20.910;2023-03-30T00:23:20;184.20;;;59.37;;
21170;SDS011;10743;52.160;20.910;2023-03-30T00:25:47;187.07;;;68.90;;
21170;SDS011;10743;52.160;20.910;2023-03-30T00:28:14;183.70;;;66.17;;
21170;SDS011;10743;52.160;20.910;2023-03-30T00:30:42;189.73;;;68.43;;
21170;SDS011;10743;52.160;20.910;2023-03-30T00:33:09;182.10;;;60.33;;
21170;SDS011;10743;52.160;20.910;2023-03-30T00:35:36;183.50;;;66.70;;
21170;SDS011;10743;52.160;20.910;2023-03-30T00:38:03;188.37;;;73.63;;
21170;SDS011;10743;52.160;20.910;2023-03-30T00:40:32;187.57;;;67.43;;
21170;SDS011;10743;52.160;20.910;2023-03-30T00:43:03;180.97;;;59.30;;
21170;SDS011;10743;52.160;20.910;2023-03-30T00:45:33;184.07;;;59.07;;
21170;SDS011;10743;52.160;20.910;2023-03-30T00:48:09;173.60;;;58.90;;
21170;SDS011;10743;52.160;20.910;2023-03-30T00:53:43;178.63;;;59.33;;
21170;SDS011;10743;52.160;20.910;2023-03-30T00:56:14;177.20;;;56.63;;
21170;SDS011;10743;52.160;20.910;2023-03-30T00:58:45;177.20;;;58.40;;
21170;SDS011;10743;52.160;20.910;2023-03-30T01:01:13;174.87;;;56.33;;
21170;SDS011;10743;52.160;20.910;2023-03-30T01:03:44;177.47;;;57.00;;
21170;SDS011;10743;52.160;20.910;2023-03-30T01:06:14;182.50;;;56.63;;
21170;SDS011;10743;52.160;20.910;2023-03-30T01:08:50;180.57;;;59.03;;
21170;SDS011;10743;52.160;20.910;2023-03-30T01:11:18;190.20;;;58.07;;
21170;SDS011;10743;52.160;20.910;2023-03-30T01:13:49;184.80;;;58.73;;
21170;SDS011;10743;52.160;20.910;2023-03-30T01:48:04;183.57;;;58.50;;
21170;SDS011;10743;52.160;20.910;2023-03-30T01:50:45;183.87;;;58.27;;
21170;SDS011;10743;52.160;20.910;2023-03-30T01:53:27;179.77;;;58.73;;
21170;SDS011;10743;52.160;20.910;2023-03-30T01:56:05;190.27;;;58.53;;
21170;SDS011;10743;52.160;20.910;2023-03-30T02:01:14;185.63;;;56.83;;
21170;SDS011;10743;52.160;20.910;2023-03-30T02:03:43;183.03;;;57.13;;
21170;SDS011;10743;52.160;20.910;2023-03-30T02:06:22;179.07;;;56.50;;
21170;SDS011;10743;52.160;20.910;2023-03-30T02:09:05;177.77;;;56.13;;
21170;SDS011;10743;52.160;20.910;2023-03-30T02:11:36;180.67;;;56.13;;
21170;SDS011;10743;52.160;20.910;2023-03-30T02:14:08;179.87;;;56.33;;
21170;SDS011;10743;52.160;20.910;2023-03-30T02:16:39;179.03;;;56.70;;
21170;SDS011;10743;52.160;20.910;2023-03-30T02:19:12;181.03;;;56.23;;
21170;SDS011;10743;52.160;20.910;2023-03-30T02:21:41;184.77;;;56.80;;
21170;SDS011;10743;52.160;20.910;2023-03-30T02:24:19;180.50;;;56.50;;
21170;SDS011;10743;52.160;20.910;2023-03-30T02:26:51;181.23;;;56.43;;
21170;SDS011;10743;52.160;20.910;2023-03-30T02:29:20;181.20;;;56.80;;
21170;SDS011;10743;52.160;20.910;2023-03-30T02:31:48;178.67;;;57.40;;
21170;SDS011;10743;52.160;20.910;2023-03-30T02:34:24;181.37;;;56.93;;
21170;SDS011;10743;52.160;20.910;2023-03-30T02:37:00;175.77;;;55.30;;
21170;SDS011;10743;52.160;20.910;2023-03-30T02:52:20;187.30;;;61.77;;
21170;SDS011;10743;52.160;20.910;2023-03-30T02:55:41;186.53;;;60.13;;
21170;SDS011;10743;52.160;20.910;2023-03-30T02:58:39;182.93;;;58.57;;
21170;SDS011;10743;52.160;20.910;2023-03-30T03:01:53;187.57;;;62.67;;
21170;SDS011;10743;52.160;20.910;2023-03-30T03:04:30;213.70;;;92.03;;
21170;SDS011;10743;52.160;20.910;2023-03-30T03:07:16;192.00;;;81.33;;
21170;SDS011;10743;52.160;20.910;2023-03-30T03:09:46;198.33;;;87.00;;
21170;SDS011;10743;52.160;20.910;2023-03-30T03:12:13;168.93;;;80.40;;
21170;SDS011;10743;52.160;20.910;2023-03-30T03:14:40;184.67;;;88.17;;
21170;SDS011;10743;52.160;20.910;2023-03-30T03:17:09;174.77;;;74.20;;
21170;SDS011;10743;52.160;20.910;2023-03-30T03:19:43;182.03;;;75.47;;
21170;SDS011;10743;52.160;20.910;2023-03-30T03:22:11;180.57;;;60.27;;
21170;SDS011;10743;52.160;20.910;2023-03-30T03:24:39;181.67;;;67.63;;
21170;SDS011;10743;52.160;20.910;2023-03-30T03:27:19;180.93;;;61.47;;
21170;SDS011;10743;52.160;20.910;2023-03-30T03:30:03;177.20;;;58.53;;
21170;SDS011;10743;52.160;20.910;2023-03-30T03:32:37;179.10;;;58.60;;
21170;SDS011;10743;52.160;20.910;2023-03-30T03:35:04;178.70;;;58.33;;
21170;SDS011;10743;52.160;20.910;2023-03-30T03:37:33;184.27;;;59.17;;
21170;SDS011;10743;52.160;20.910;2023-03-30T03:40:01;182.90;;;58.60;;
21170;SDS011;10743;52.160;20.910;2023-03-30T03:42:31;182.23;;;58.23;;
21170;SDS011;10743;52.160;20.910;2023-03-30T03:45:06;182.87;;;57.10;;
21170;SDS011;10743;52.160;20.910;2023-03-30T03:47:36;185.83;;;60.53;;
21170;SDS011;10743;52.160;20.910;2023-03-30T03:50:03;181.37;;;63.93;;
21170;SDS011;10743;52.160;20.910;2023-03-30T03:52:35;180.47;;;57.53;;
21170;SDS011;10743;52.160;20.910;2023-03-30T03:55:03;178.53;;;57.73;;
21170;SDS011;10743;52.160;20.910;2023-03-30T03:57:31;178.70;;;57.60;;
21170;SDS011;10743;52.160;20.910;2023-03-30T03:59:58;181.87;;;58.17;;
21170;SDS011;10743;52.160;20.910;2023-03-30T04:02:25;183.43;;;65.50;;
21170;SDS011;10743;52.160;20.910;2023-03-30T04:04:53;190.17;;;66.67;;
21170;SDS011;10743;52.160;20.910;2023-03-30T04:07:21;186.10;;;66.13;;
21170;SDS011;10743;52.160;20.910;2023-03-30T04:09:50;183.10;;;59.60;;
21170;SDS011;10743;52.160;20.910;2023-03-30T04:12:41;184.63;;;58.27;;
21170;SDS011;10743;52.160;20.910;2023-03-30T04:15:28;178.97;;;57.37;;
21170;SDS011;10743;52.160;20.910;2023-03-30T04:18:07;171.90;;;56.07;;
21170;SDS011;10743;52.160;20.910;2023-03-30T04:21:05;180.47;;;57.17;;
21170;SDS011;10743;52.160;20.910;2023-03-30T04:23:44;177.67;;;56.63;;
21170;SDS011;10743;52.160;20.910;2023-03-30T04:26:17;181.80;;;57.43;;
21170;SDS011;10743;52.160;20.910;2023-03-30T04:29:03;185.00;;;58.23;;
21170;SDS011;10743;52.160;20.910;2023-03-30T04:31:56;180.43;;;57.33;;
21170;SDS011;10743;52.160;20.910;2023-03-30T04:35:04;180.57;;;57.27;;
21170;SDS011;10743;52.160;20.910;2023-03-30T04:37:46;183.63;;;63.63;;
21170;SDS011;10743;52.160;20.910;2023-03-30T04:40:35;185.17;;;58.90;;
21170;SDS011;10743;52.160;20.910;2023-03-30T04:43:18;187.60;;;59.40;;
21170;SDS011;10743;52.160;20.910;2023-03-30T04:46:00;185.50;;;60.33;;
21170;SDS011;10743;52.160;20.910;2023-03-30T04:48:45;190.13;;;60.23;;
21170;SDS011;10743;52.160;20.910;2023-03-30T04:51:38;188.83;;;59.17;;
21170;SDS011;10743;52.160;20.910;2023-03-30T04:54:24;183.10;;;60.27;;
21170;SDS011;10743;52.160;20.910;2023-03-30T04:56:54;185.67;;;58.80;;
21170;SDS011;10743;52.160;20.910;2023-03-30T04:59:41;183.80;;;58.53;;
21170;SDS011;10743;52.160;20.910;2023-03-30T05:02:24;186.37;;;57.33;;
21170;SDS011;10743;52.160;20.910;2023-03-30T05:05:10;191.20;;;58.80;;
21170;SDS011;10743;52.160;20.910;2023-03-30T05:07:57;181.37;;;57.73;;
21170;SDS011;10743;52.160;20.910;2023-03-30T05:10:36;185.47;;;57.60;;
21170;SDS011;10743;52.160;20.910;2023-03-30T05:13:27;179.23;;;57.47;;
21170;SDS011;10743;52.160;20.910;2023-03-30T05:16:12;182.43;;;58.13;;
21170;SDS011;10743;52.160;20.910;2023-03-30T05:19:02;189.23;;;58.77;;
21170;SDS011;10743;52.160;20.910;2023-03-30T05:22:01;183.73;;;57.30;;
21170;SDS011;10743;52.160;20.910;2023-03-30T05:24:49;190.07;;;58.20;;
21170;SDS011;10743;52.160;20.910;2023-03-30T05:27:27;186.03;;;58.60;;
21170;SDS011;10743;52.160;20.910;2023-03-30T05:30:13;184.20;;;57.87;;
21170;SDS011;10743;52.160;20.910;2023-03-30T05:33:00;185.50;;;58.83;;
21170;SDS011;10743;52.160;20.910;2023-03-30T05:35:55;184.57;;;58.33;;
21170;SDS011;10743;52.160;20.910;2023-03-30T05:38:35;188.80;;;58.73;;
21170;SDS011;10743;52.160;20.910;2023-03-30T05:41:21;187.60;;;58.77;;
21170;SDS011;10743;52.160;20.910;2023-03-30T05:44:01;189.70;;;59.33;;
21170;SDS011;10743;52.160;20.910;2023-03-30T05:46:49;189.60;;;58.73;;
21170;SDS011;10743;52.160;20.910;2023-03-30T05:49:34;184.90;;;58.27;;
21170;SDS011;10743;52.160;20.910;2023-03-30T05:52:17;185.50;;;57.47;;
21170;SDS011;10743;52.160;20.910;2023-03-30T05:55:03;188.73;;;58.17;;
21170;SDS011;10743;52.160;20.910;2023-03-30T05:57:50;180.50;;;58.60;;
21170;SDS011;10743;52.160;20.910;2023-03-30T06:00:37;181.93;;;58.83;;
21170;SDS011;10743;52.160;20.910;2023-03-30T06:03:16;183.67;;;58.50;;
21170;SDS011;10743;52.160;20.910;2023-03-30T06:05:44;189.33;;;59.03;;
21170;SDS011;10743;52.160;20.910;2023-03-30T06:08:11;185.37;;;58.27;;
21170;SDS011;10743;52.160;20.910;2023-03-30T06:10:40;185.30;;;58.30;;
21170;SDS011;10743;52.160;20.910;2023-03-30T06:13:10;191.23;;;60.33;;
21170;SDS011;10743;52.160;20.910;2023-03-30T06:15:45;204.57;;;63.70;;
21170;SDS011;10743;52.160;20.910;2023-03-30T06:18:17;194.57;;;60.73;;
21170;SDS011;10743;52.160;20.910;2023-03-30T06:20:54;187.00;;;59.27;;
21170;SDS011;10743;52.160;20.910;2023-03-30T06:23:21;189.67;;;60.30;;
21170;SDS011;10743;52.160;20.910;2023-03-30T06:25:52;189.60;;;60.57;;
21170;SDS011;10743;52.160;20.910;2023-03-30T06:28:25;191.60;;;60.10;;
21170;SDS011;10743;52.160;20.910;2023-03-30T06:30:53;189.50;;;61.33;;
21170;SDS011;10743;52.160;20.910;2023-03-30T06:33:23;188.37;;;60.77;;
21170;SDS011;10743;52.160;20.910;2023-03-30T06:35:56;193.33;;;65.17;;
21170;SDS011;10743;52.160;20.910;2023-03-30T06:38:23;193.17;;;66.07;;
21170;SDS011;10743;52.160;20.910;2023-03-30T06:40:53;189.30;;;59.97;;
21170;SDS011;10743;52.160;20.910;2023-03-30T06:43:23;182.87;;;60.80;;
21170;SDS011;10743;52.160;20.910;2023-03-30T06:45:59;184.57;;;59.80;;
21170;SDS011;10743;52.160;20.910;2023-03-30T06:48:27;192.33;;;59.90;;
21170;SDS011;10743;52.160;20.910;2023-03-30T06:51:12;193.10;;;60.50;;
21170;SDS011;10743;52.160;20.910;2023-03-30T06:53:41;201.47;;;62.80;;
21170;SDS011;10743;52.160;20.910;2023-03-30T06:56:08;188.27;;;59.73;;
21170;SDS011;10743;52.160;20.910;2023-03-30T06:58:43;188.57;;;59.73;;
21170;SDS011;10743;52.160;20.910;2023-03-30T07:01:12;187.80;;;59.77;;
21170;SDS011;10743;52.160;20.910;2023-03-30T07:04:01;193.03;;;59.67;;
21170;SDS011;10743;52.160;20.910;2023-03-30T07:07:04;188.73;;;58.57;;
21170;SDS011;10743;52.160;20.910;2023-03-30T07:09:31;190.00;;;59.60;;
21170;SDS011;10743;52.160;20.910;2023-03-30T07:11:59;194.53;;;60.37;;
21170;SDS011;10743;52.160;20.910;2023-03-30T07:14:26;198.73;;;59.97;;
21170;SDS011;10743;52.160;20.910;2023-03-30T07:16:53;192.40;;;62.27;;
21170;SDS011;10743;52.160;20.910;2023-03-30T07:19:20;190.90;;;61.10;;
21170;SDS011;10743;52.160;20.910;2023-03-30T07:21:47;197.57;;;67.50;;
21170;SDS011;10743;52.160;20.910;2023-03-30T07:24:16;195.77;;;61.67;;
21170;SDS011;10743;52.160;20.910;2023-03-30T07:26:44;192.60;;;61.23;;
21170;SDS011;10743;52.160;20.910;2023-03-30T07:29:11;196.03;;;60.40;;
21170;SDS011;10743;52.160;20.910;2023-03-30T07:31:43;190.53;;;59.13;;
21170;SDS011;10743;52.160;20.910;2023-03-30T07:34:14;191.37;;;59.63;;
21170;SDS011;10743;52.160;20.910;2023-03-30T07:36:48;194.30;;;59.67;;
21170;SDS011;10743;52.160;20.910;2023-03-30T07:39:16;188.90;;;59.07;;
21170;SDS011;10743;52.160;20.910;2023-03-30T07:41:44;192.10;;;59.83;;
21170;SDS011;10743;52.160;20.910;2023-03-30T07:44:12;194.87;;;59.73;;
21170;SDS011;10743;52.160;20.910;2023-03-30T07:46:39;196.50;;;60.87;;
21170;SDS011;10743;52.160;20.910;2023-03-30T07:49:12;196.10;;;61.70;;
21170;SDS011;10743;52.160;20.910;2023-03-30T07:51:39;198.00;;;61.40;;
21170;SDS011;10743;52.160;20.910;2023-03-30T07:54:26;189.03;;;58.83;;
21170;SDS011;10743;52.160;20.910;2023-03-30T07:57:02;198.43;;;61.47;;
21170;SDS011;10743;52.160;20.910;2023-03-30T07:59:31;194.90;;;60.33;;
21170;SDS011;10743;52.160;20.910;2023-03-30T08:02:09;204.03;;;69.77;;
21170;SDS011;10743;52.160;20.910;2023-03-30T08:04:48;196.00;;;58.60;;
21170;SDS011;10743;52.160;20.910;2023-03-30T08:07:22;192.87;;;61.03;;
21170;SDS011;10743;52.160;20.910;2023-03-30T08:09:54;196.03;;;60.13;;
21170;SDS011;10743;52.160;20.910;2023-03-30T08:12:21;194.70;;;59.83;;
21170;SDS011;10743;52.160;20.910;2023-03-30T08:14:48;196.97;;;65.30;;
21170;SDS011;10743;52.160;20.910;2023-03-30T08:17:15;197.60;;;62.30;;
21170;SDS011;10743;52.160;20.910;2023-03-30T08:19:42;198.13;;;60.50;;
21170;SDS011;10743;52.160;20.910;2023-03-30T08:22:09;192.27;;;60.03;;
21170;SDS011;10743;52.160;20.910;2023-03-30T08:24:37;203.53;;;70.73;;
21170;SDS011;10743;52.160;20.910;2023-03-30T08:27:04;202.63;;;64.40;;
21170;SDS011;10743;52.160;20.910;2023-03-30T08:29:31;199.70;;;68.70;;
21170;SDS011;10743;52.160;20.910;2023-03-30T08:31:58;197.23;;;65.27;;
21170;SDS011;10743;52.160;20.910;2023-03-30T08:34:26;198.70;;;60.87;;
21170;SDS011;10743;52.160;20.910;2023-03-30T08:36:53;199.17;;;60.87;;
21170;SDS011;10743;52.160;20.910;2023-03-30T08:39:20;202.13;;;67.07;;
21170;SDS011;10743;52.160;20.910;2023-03-30T08:44:52;196.27;;;63.37;;
21170;SDS011;10743;52.160;20.910;2023-03-30T08:47:28;196.07;;;62.17;;
21170;SDS011;10743;52.160;20.910;2023-03-30T08:50:23;196.40;;;63.40;;
21170;SDS011;10743;52.160;20.910;2023-03-30T08:53:01;195.87;;;61.80;;
21170;SDS011;10743;52.160;20.910;2023-03-30T09:03:47;198.13;;;60.87;;
21170;SDS011;10743;52.160;20.910;2023-03-30T09:06:39;195.67;;;60.47;;
21170;SDS011;10743;52.160;20.910;2023-03-30T09:09:17;200.87;;;60.80;;
21170;SDS011;10743;52.160;20.910;2023-03-30T09:11:47;199.00;;;63.63;;
21170;SDS011;10743;52.160;20.910;2023-03-30T09:14:25;195.03;;;61.73;;
21170;SDS011;10743;52.160;20.910;2023-03-30T09:17:24;198.67;;;62.90;;
21170;SDS011;10743;52.160;20.910;2023-03-30T09:20:06;198.40;;;63.20;;
21170;SDS011;10743;52.160;20.910;2023-03-30T09:22:39;203.17;;;63.80;;
21170;SDS011;10743;52.160;20.910;2023-03-30T09:25:13;200.27;;;63.37;;
21170;SDS011;10743;52.160;20.910;2023-03-30T09:27:44;201.73;;;62.67;;
21170;SDS011;10743;52.160;20.910;2023-03-30T09:30:17;194.17;;;61.10;;
21170;SDS011;10743;52.160;20.910;2023-03-30T09:33:03;195.87;;;60.63;;
21170;SDS011;10743;52.160;20.910;2023-03-30T09:35:39;204.10;;;61.23;;
21170;SDS011;10743;52.160;20.910;2023-03-30T09:38:10;203.20;;;61.70;;
21170;SDS011;10743;52.160;20.910;2023-03-30T09:40:58;198.47;;;60.90;;
21170;SDS011;10743;52.160;20.910;2023-03-30T09:43:40;199.73;;;60.67;;
21170;SDS011;10743;52.160;20.910;2023-03-30T09:46:12;197.83;;;61.50;;
21170;SDS011;10743;52.160;20.910;2023-03-30T09:48:44;201.97;;;61.13;;
21170;SDS011;10743;52.160;20.910;2023-03-30T09:53:43;203.50;;;60.63;;
21170;SDS011;10743;52.160;20.910;2023-03-30T09:56:35;197.80;;;60.37;;
21170;SDS011;10743;52.160;20.910;2023-03-30T09:59:18;200.60;;;61.07;;
21170;SDS011;10743;52.160;20.910;2023-03-30T10:01:45;199.50;;;60.77;;
21170;SDS011;10743;52.160;20.910;2023-03-30T10:04:12;205.57;;;61.33;;
21170;SDS011;10743;52.160;20.910;2023-03-30T10:06:46;199.80;;;60.87;;
21170;SDS011;10743;52.160;20.910;2023-03-30T10:09:16;206.23;;;61.27;;
21170;SDS011;10743;52.160;20.910;2023-03-30T10:11:47;206.63;;;61.23;;
21170;SDS011;10743;52.160;20.910;2023-03-30T10:14:35;204.07;;;61.37;;
21170;SDS011;10743;52.160;20.910;2023-03-30T10:17:03;200.30;;;60.13;;
21170;SDS011;10743;52.160;20.910;2023-03-30T10:19:34;203.30;;;61.57;;
21170;SDS011;10743;52.160;20.910;2023-03-30T10:22:09;204.10;;;65.57;;
21170;SDS011;10743;52.160;20.910;2023-03-30T10:24:53;199.67;;;61.77;;
21170;SDS011;10743;52.160;20.910;2023-03-30T10:27:26;206.87;;;62.47;;
21170;SDS011;10743;52.160;20.910;2023-03-30T10:30:07;205.87;;;61.50;;
21170;SDS011;10743;52.160;20.910;2023-03-30T10:32:36;201.10;;;60.70;;
21170;SDS011;10743;52.160;20.910;2023-03-30T10:35:07;204.30;;;61.30;;
21170;SDS011;10743;52.160;20.910;2023-03-30T10:37:39;209.10;;;61.83;;
21170;SDS011;10743;52.160;20.910;2023-03-30T10:40:14;202.30;;;61.67;;
21170;SDS011;10743;52.160;20.910;2023-03-30T10:42:43;204.73;;;60.47;;
21170;SDS011;10743;52.160;20.910;2023-03-30T10:45:13;207.60;;;61.00;;
21170;SDS011;10743;52.160;20.910;2023-03-30T10:50:40;204.43;;;62.20;;
21170;SDS011;10743;52.160;20.910;2023-03-30T11:05:01;22.70;;;8.85;;
21170;SDS011;10743;52.160;20.910;2023-03-30T11:07:42;17.45;;;9.43;;
21170;SDS011;10743;52.160;20.910;2023-03-30T11:10:29;18.42;;;8.85;;
21170;SDS011;10743;52.160;20.910;2023-03-30T11:19:09;17.85;;;10.00;;
21170;SDS011;10743;52.160;20.910;2023-03-30T11:21:37;17.65;;;9.25;;
21170;SDS011;10743;52.160;20.910;2023-03-30T11:24:18;17.83;;;9.85;;
21170;SDS011;10743;52.160;20.910;2023-03-30T11:29:50;18.30;;;10.07;;
21170;SDS011;10743;52.160;20.910;2023-03-30T11:38:03;19.17;;;10.18;;
21170;SDS011;10743;52.160;20.910;2023-03-30T11:40:46;21.58;;;9.77;;
21170;SDS011;10743;52.160;20.910;2023-03-30T11:43:22;17.48;;;9.32;;
21170;SDS011;10743;52.160;20.910;2023-03-30T11:46:04;17.63;;;9.15;;
21170;SDS011;10743;52.160;20.910;2023-03-30T11:52:00;18.92;;;9.88;;
21170;SDS011;10743;52.160;20.910;2023-03-30T12:12:10;17.80;;;9.90;;
21170;SDS011;10743;52.160;20.910;2023-03-30T12:22:46;16.00;;;7.45;;
21170;SDS011;10743;52.160;20.910;2023-03-30T12:28:28;13.95;;;8.63;;
21170;SDS011;10743;52.160;20.910;2023-03-30T12:31:15;16.20;;;8.40;;
21170;SDS011;10743;52.160;20.910;2023-03-30T12:36:35;18.15;;;8.70;;
21170;SDS011;10743;52.160;20.910;2023-03-30T12:39:12;14.70;;;8.05;;
21170;SDS011;10743;52.160;20.910;2023-03-30T12:42:03;17.17;;;8.13;;
21170;SDS011;10743;52.160;20.910;2023-03-30T12:47:20;16.23;;;8.55;;
21170;SDS011;10743;52.160;20.910;2023-03-30T12:53:18;16.38;;;8.13;;
21170;SDS011;10743;52.160;20.910;2023-03-30T12:56:28;14.90;;;7.80;;
21170;SDS011;10743;52.160;20.910;2023-03-30T13:02:17;18.50;;;8.20;;
21170;SDS011;10743;52.160;20.910;2023-03-30T13:05:37;14.18;;;7.38;;
21170;SDS011;10743;52.160;20.910;2023-03-30T13:08:14;14.00;;;7.47;;
21170;SDS011;10743;52.160;20.910;2023-03-30T13:10:49;13.55;;;6.88;;
21170;SDS011;10743;52.160;20.910;2023-03-30T13:13:23;10.43;;;5.57;;
21170;SDS011;10743;52.160;20.910;2023-03-30T13:21:55;10.35;;;5.60;;
21170;SDS011;10743;52.160;20.910;2023-03-30T13:32:36;9.73;;;5.15;;
21170;SDS011;10743;52.160;20.910;2023-03-30T13:48:18;9.77;;;5.40;;
21170;SDS011;10743;52.160;20.910;2023-03-30T13:51:14;8.50;;;4.28;;
21170;SDS011;10743;52.160;20.910;2023-03-30T13:53:52;7.60;;;4.25;;
21170;SDS011;10743;52.160;20.910;2023-03-30T13:56:29;9.27;;;4.78;;
21170;SDS011;10743;52.160;20.910;2023-03-30T13:59:04;10.45;;;5.05;;
21170;SDS011;10743;52.160;20.910;2023-03-30T14:01:44;7.70;;;4.30;;
21170;SDS011;10743;52.160;20.910;2023-03-30T14:04:16;9.65;;;4.72;;
21170;SDS011;10743;52.160;20.910;2023-03-30T14:06:44;13.23;;;6.47;;
21170;SDS011;10743;52.160;20.910;2023-03-30T14:09:26;12.82;;;6.47;;
21170;SDS011;10743;52.160;20.910;2023-03-30T14:11:55;13.73;;;4.63;;
21170;SDS011;10743;52.160;20.910;2023-03-30T14:14:32;7.47;;;4.70;;
21170;SDS011;10743;52.160;20.910;2023-03-30T14:17:20;11.90;;;4.68;;
21170;SDS011;10743;52.160;20.910;2023-03-30T14:20:00;11.02;;;5.47;;
21170;SDS011;10743;52.160;20.910;2023-03-30T14:22:51;11.80;;;5.45;;
21170;SDS011;10743;52.160;20.910;2023-03-30T14:25:23;9.43;;;5.30;;
21170;SDS011;10743;52.160;20.910;2023-03-30T14:27:55;12.48;;;5.75;;
21170;SDS011;10743;52.160;20.910;2023-03-30T14:30:28;12.20;;;6.82;;
21170;SDS011;10743;52.160;20.910;2023-03-30T14:33:06;11.38;;;5.93;;
21170;SDS011;10743;52.160;20.910;2023-03-30T14:35:51;11.27;;;5.90;;
21170;SDS011;10743;52.160;20.910;2023-03-30T14:40:52;11.23;;;5.35;;
21170;SDS011;10743;52.160;20.910;2023-03-30T14:43:21;12.13;;;4.82;;
21170;SDS011;10743;52.160;20.910;2023-03-30T14:45:51;10.25;;;4.82;;
21170;SDS011;10743;52.160;20.910;2023-03-30T14:48:32;8.80;;;4.85;;
21170;SDS011;10743;52.160;20.910;2023-03-30T14:51:06;9.50;;;5.10;;
21170;SDS011;10743;52.160;20.910;2023-03-30T14:53:53;9.32;;;4.90;;
21170;SDS011;10743;52.160;20.910;2023-03-30T14:56:21;13.30;;;6.05;;
21170;SDS011;10743;52.160;20.910;2023-03-30T14:58:49;9.40;;;5.07;;
21170;SDS011;10743;52.160;20.910;2023-03-30T15:01:19;12.15;;;6.72;;
21170;SDS011;10743;52.160;20.910;2023-03-30T15:03:57;19.42;;;8.88;;
21170;SDS011;10743;52.160;20.910;2023-03-30T15:06:30;18.77;;;9.30;;
21170;SDS011;10743;52.160;20.910;2023-03-30T15:09:01;26.42;;;11.43;;
21170;SDS011;10743;52.160;20.910;2023-03-30T15:11:36;18.08;;;7.95;;
21170;SDS011;10743;52.160;20.910;2023-03-30T15:14:05;12.27;;;6.28;;
21170;SDS011;10743;52.160;20.910;2023-03-30T15:16:35;13.52;;;8.00;;
21170;SDS011;10743;52.160;20.910;2023-03-30T15:19:10;18.40;;;7.30;;
21170;SDS011;10743;52.160;20.910;2023-03-30T15:22:02;11.30;;;6.25;;
21170;SDS011;10743;52.160;20.910;2023-03-30T15:24:43;13.52;;;7.35;;
21170;SDS011;10743;52.160;20.910;2023-03-30T15:27:10;17.58;;;7.95;;
21170;SDS011;10743;52.160;20.910;2023-03-30T15:29:41;15.63;;;5.70;;
21170;SDS011;10743;52.160;20.910;2023-03-30T15:32:17;12.93;;;7.13;;
21170;SDS011;10743;52.160;20.910;2023-03-30T15:35:21;12.88;;;6.20;;
21170;SDS011;10743;52.160;20.910;2023-03-30T15:37:56;12.32;;;6.57;;
21170;SDS011;10743;52.160;20.910;2023-03-30T15:40:34;31.15;;;14.27;;
21170;SDS011;10743;52.160;20.910;2023-03-30T15:43:24;25.35;;;12.65;;
21170;SDS011;10743;52.160;20.910;2023-03-30T15:45:59;41.42;;;18.52;;
21170;SDS011;10743;52.160;20.910;2023-03-30T15:48:30;30.33;;;13.68;;
21170;SDS011;10743;52.160;20.910;2023-03-30T15:51:29;17.63;;;8.77;;
21170;SDS011;10743;52.160;20.910;2023-03-30T15:54:03;18.70;;;8.50;;
21170;SDS011;10743;52.160;20.910;2023-03-30T15:59:37;18.15;;;7.90;;
21170;SDS011;10743;52.160;20.910;2023-03-30T16:02:14;17.85;;;8.18;;
21170;SDS011;10743;52.160;20.910;2023-03-30T16:04:42;18.17;;;8.48;;
21170;SDS011;10743;52.160;20.910;2023-03-30T16:07:17;16.42;;;8.00;;
21170;SDS011;10743;52.160;20.910;2023-03-30T16:09:47;18.35;;;9.63;;
21170;SDS011;10743;52.160;20.910;2023-03-30T16:12:15;16.52;;;10.63;;
21170;SDS011;10743;52.160;20.910;2023-03-30T16:14:46;19.00;;;10.50;;
21170;SDS011;10743;52.160;20.910;2023-03-30T16:17:14;15.85;;;9.25;;
21170;SDS011;10743;52.160;20.910;2023-03-30T16:19:41;18.17;;;8.55;;
21170;SDS011;10743;52.160;20.910;2023-03-30T16:22:09;22.52;;;11.52;;
21170;SDS011;10743;52.160;20.910;2023-03-30T16:24:37;18.45;;;10.85;;
21170;SDS011;10743;52.160;20.910;2023-03-30T16:27:06;19.52;;;9.43;;
21170;SDS011;10743;52.160;20.910;2023-03-30T16:29:35;19.60;;;9.82;;
21170;SDS011;10743;52.160;20.910;2023-03-30T16:32:02;20.27;;;10.40;;
21170;SDS011;10743;52.160;20.910;2023-03-30T16:34:30;22.20;;;10.95;;
21170;SDS011;10743;52.160;20.910;2023-03-30T16:36:57;24.10;;;10.10;;
21170;SDS011;10743;52.160;20.910;2023-03-30T16:39:25;19.58;;;10.13;;
21170;SDS011;10743;52.160;20.910;2023-03-30T16:41:54;27.15;;;10.05;;
21170;SDS011;10743;52.160;20.910;2023-03-30T16:44:22;19.05;;;9.32;;
21170;SDS011;10743;52.160;20.910;2023-03-30T16:46:50;19.52;;;10.25;;
21170;SDS011;10743;52.160;20.910;2023-03-30T16:49:18;19.08;;;10.35;;
21170;SDS011;10743;52.160;20.910;2023-03-30T16:51:49;19.77;;;10.43;;
21170;SDS011;10743;52.160;20.910;2023-03-30T16:54:21;21.88;;;11.13;;
21170;SDS011;10743;52.160;20.910;2023-03-30T16:56:58;19.75;;;11.05;;
21170;SDS011;10743;52.160;20.910;2023-03-30T16:59:27;23.10;;;11.07;;
21170;SDS011;10743;52.160;20.910;2023-03-30T17:01:56;22.52;;;11.23;;
21170;SDS011;10743;52.160;20.910;2023-03-30T17:04:24;18.48;;;10.13;;
21170;SDS011;10743;52.160;20.910;2023-03-30T17:06:52;21.50;;;10.88;;
21170;SDS011;10743;52.160;20.910;2023-03-30T17:09:19;22.30;;;11.55;;
21170;SDS011;10743;52.160;20.910;2023-03-30T17:11:47;25.17;;;10.98;;
21170;SDS011;10743;52.160;20.910;2023-03-30T17:14:14;20.00;;;11.23;;
21170;SDS011;10743;52.160;20.910;2023-03-30T17:16:42;24.13;;;12.82;;
21170;SDS011;10743;52.160;20.910;2023-03-30T17:19:10;30.45;;;13.75;;
21170;SDS011;10743;52.160;20.910;2023-03-30T17:21:39;33.85;;;15.73;;
21170;SDS011;10743;52.160;20.910;2023-03-30T17:24:08;45.30;;;19.65;;
21170;SDS011;10743;52.160;20.910;2023-03-30T17:26:38;46.92;;;19.10;;
21170;SDS011;10743;52.160;20.910;2023-03-30T17:29:05;29.98;;;16.50;;
21170;SDS011;10743;52.160;20.910;2023-03-30T17:31:32;29.88;;;15.93;;
21170;SDS011;10743;52.160;20.910;2023-03-30T17:33:59;27.38;;;14.25;;
21170;SDS011;10743;52.160;20.910;2023-03-30T17:36:26;28.90;;;14.73;;
21170;SDS011;10743;52.160;20.910;2023-03-30T17:38:54;28.45;;;14.35;;
21170;SDS011;10743;52.160;20.910;2023-03-30T17:41:21;34.33;;;15.85;;